Time;durP1;ratioP1;P1;durP2;ratioP2;P2;SDS_P1;SDS_P2;PMS_P1;PMS_P2;Temp;Humidity;BMP_temperature;BMP_pressure;BME280_temperature;BME280_humidity;BME280_pressure;Samples;Min_cycle;Max_cycle;Signal;HPM_P1;HPM_P2
2022/12/05 00:02:37;;;;;;;34.20;17.52;;;5.10;99.90;;;;;;5058625;28;20139;-77
2022/12/05 00:05:23;;;;;;;33.90;18.15;;;5.10;99.90;;;;;;5078927;28;20051;-82
2022/12/05 00:08:09;;;;;;;32.83;17.88;;;5.10;99.90;;;;;;5074574;28;20056;-82
2022/12/05 00:10:55;;;;;;;37.13;19.20;;;5.10;99.90;;;;;;5072303;28;20142;-82
2022/12/05 00:13:42;;;;;;;36.53;18.83;;;5.10;99.90;;;;;;5091842;28;20047;-79
2022/12/05 00:16:30;;;;;;;36.00;19.33;;;5.10;99.90;;;;;;5089845;28;20047;-85
2022/12/05 00:19:16;;;;;;;39.58;17.77;;;5.10;99.90;;;;;;5090237;28;20055;-82
2022/12/05 00:22:02;;;;;;;40.03;18.98;;;5.00;99.90;;;;;;5085948;28;20094;-84
2022/12/05 00:24:49;;;;;;;36.00;19.08;;;5.00;99.90;;;;;;5072100;28;20059;-81
2022/12/05 00:27:35;;;;;;;40.65;19.42;;;5.00;99.90;;;;;;5090351;28;20593;-79
2022/12/05 00:30:21;;;;;;;40.15;20.02;;;5.00;99.90;;;;;;5090561;28;20407;-81
2022/12/05 00:33:07;;;;;;;34.97;18.50;;;5.00;99.90;;;;;;5090597;28;20040;-79
2022/12/05 00:35:54;;;;;;;37.60;19.75;;;5.10;99.90;;;;;;5077593;28;20469;-83
2022/12/05 00:38:41;;;;;;;42.00;20.38;;;5.00;99.90;;;;;;5092794;28;20044;-80
2022/12/05 00:41:28;;;;;;;35.38;19.88;;;5.10;99.90;;;;;;5089935;28;20048;-77
2022/12/05 00:44:14;;;;;;;36.10;18.27;;;5.10;99.90;;;;;;5071545;28;20055;-78
2022/12/05 00:47:00;;;;;;;39.35;20.13;;;5.10;99.90;;;;;;5090809;28;20132;-78
2022/12/05 00:49:47;;;;;;;36.75;19.85;;;5.10;99.90;;;;;;5058812;28;20144;-82
2022/12/05 00:52:33;;;;;;;32.25;17.77;;;5.10;99.90;;;;;;5094493;28;20135;-83
2022/12/05 00:55:19;;;;;;;39.92;19.38;;;5.10;99.90;;;;;;5073763;28;20047;-82
2022/12/05 00:58:06;;;;;;;35.30;17.95;;;5.10;99.90;;;;;;5086204;28;20056;-79
2022/12/05 01:00:52;;;;;;;31.75;17.52;;;5.10;99.90;;;;;;5076164;28;20484;-85
2022/12/05 01:03:38;;;;;;;33.88;18.20;;;5.10;99.90;;;;;;5080545;28;20139;-84
2022/12/05 01:06:26;;;;;;;35.88;16.52;;;5.10;99.90;;;;;;5080486;28;20082;-86
2022/12/05 01:09:15;;;;;;;29.25;16.13;;;5.10;99.90;;;;;;5097449;28;20091;-77
2022/12/05 01:12:01;;;;;;;36.45;16.40;;;5.10;99.90;;;;;;5075472;28;20052;-83
2022/12/05 01:14:48;;;;;;;28.02;15.27;;;5.10;99.90;;;;;;5077162;28;20048;-80
2022/12/05 01:17:34;;;;;;;38.38;16.92;;;5.20;99.90;;;;;;5094944;28;20070;-85
2022/12/05 01:20:21;;;;;;;39.40;16.83;;;5.20;99.90;;;;;;5100866;28;20111;-87
2022/12/05 01:23:07;;;;;;;34.38;15.63;;;5.20;99.90;;;;;;5098327;28;20081;-81
2022/12/05 01:25:53;;;;;;;27.00;14.30;;;5.20;99.90;;;;;;5102201;28;20044;-79
2022/12/05 01:28:40;;;;;;;28.27;12.90;;;5.20;99.90;;;;;;5078064;28;20131;-79
2022/12/05 01:31:29;;;;;;;24.52;11.88;;;5.30;99.90;;;;;;5096795;28;20402;-79
2022/12/05 01:34:17;;;;;;;27.30;12.65;;;5.30;99.90;;;;;;5083420;28;20048;-78
2022/12/05 01:37:03;;;;;;;21.65;10.93;;;5.30;99.90;;;;;;5101780;28;20078;-85
2022/12/05 01:39:50;;;;;;;26.52;10.68;;;5.30;99.90;;;;;;5097963;28;20107;-80
2022/12/05 01:42:37;;;;;;;20.80;10.13;;;5.40;99.90;;;;;;5078269;28;20400;-80
2022/12/05 01:45:36;;;;;;;23.92;9.98;;;5.40;99.90;;;;;;5101076;28;20052;-80
2022/12/05 01:48:30;;;;;;;21.23;9.48;;;5.40;99.90;;;;;;5075811;28;20056;-78
2022/12/05 01:51:18;;;;;;;23.17;9.50;;;5.40;99.90;;;;;;5095121;28;20495;-81
2022/12/05 01:54:06;;;;;;;20.80;9.68;;;5.50;99.90;;;;;;5093747;28;20051;-83
2022/12/05 01:57:04;;;;;;;21.20;9.32;;;5.40;99.90;;;;;;5074581;28;20052;-78
2022/12/05 01:59:54;;;;;;;20.75;9.27;;;5.50;99.90;;;;;;5092237;28;20127;-78
2022/12/05 02:02:47;;;;;;;22.00;8.55;;;5.50;99.90;;;;;;5093537;28;20117;-82
2022/12/05 02:05:36;;;;;;;23.23;9.93;;;5.50;99.90;;;;;;5063104;28;20048;-84
2022/12/05 02:08:22;;;;;;;20.27;9.10;;;5.50;99.90;;;;;;5074535;28;20084;-79
2022/12/05 02:11:09;;;;;;;26.20;9.25;;;5.50;99.90;;;;;;5092371;28;20048;-85
2022/12/05 02:13:55;;;;;;;25.45;9.38;;;5.50;99.90;;;;;;5074400;28;20048;-78
2022/12/05 02:16:57;;;;;;;24.90;8.80;;;5.50;99.90;;;;;;5074795;28;20453;-78
2022/12/05 02:19:55;;;;;;;19.05;8.25;;;5.50;99.90;;;;;;5097325;28;20123;-86
2022/12/05 02:23:14;;;;;;;22.15;8.90;;;5.50;99.90;;;;;;5092570;28;20040;-79
2022/12/05 02:26:12;;;;;;;19.70;8.00;;;5.50;99.90;;;;;;5074592;28;20040;-79
2022/12/05 02:29:36;;;;;;;15.32;7.40;;;5.50;99.90;;;;;;5092842;28;20052;-79
2022/12/05 02:32:59;;;;;;;23.30;8.30;;;5.50;99.90;;;;;;5077224;28;20051;-80
2022/12/05 02:36:29;;;;;;;22.40;8.52;;;5.50;99.90;;;;;;5048569;28;20052;-81
2022/12/05 02:39:28;;;;;;;24.85;7.65;;;5.50;99.90;;;;;;5032000;28;20062;-81
2022/12/05 02:42:17;;;;;;;24.25;9.02;;;5.50;99.90;;;;;;5073510;28;20067;-81
2022/12/05 02:45:16;;;;;;;18.80;7.45;;;5.50;99.90;;;;;;5073836;28;20044;-79
2022/12/05 02:48:04;;;;;;;25.02;8.55;;;5.50;99.90;;;;;;5095057;28;20150;-82
2022/12/05 02:50:52;;;;;;;24.25;7.60;;;5.50;99.90;;;;;;5074668;28;20055;-78
2022/12/05 02:53:40;;;;;;;24.88;7.57;;;5.50;99.90;;;;;;5074133;28;20470;-81
2022/12/05 02:56:28;;;;;;;22.50;7.95;;;5.60;99.90;;;;;;5090692;28;20135;-78
2022/12/05 02:59:14;;;;;;;21.98;8.27;;;5.50;99.90;;;;;;5074106;28;20510;-80
2022/12/05 03:02:02;;;;;;;24.55;8.07;;;5.50;99.90;;;;;;5093429;28;20066;-86
2022/12/05 03:04:48;;;;;;;20.48;7.25;;;5.50;99.90;;;;;;5074067;28;20087;-86
2022/12/05 03:07:36;;;;;;;22.52;6.50;;;5.60;99.90;;;;;;5092034;28;20052;-85
2022/12/05 03:10:27;;;;;;;21.20;6.63;;;5.60;99.90;;;;;;5091969;28;20166;-78
2022/12/05 03:13:19;;;;;;;17.02;6.40;;;5.60;99.90;;;;;;5091963;28;20047;-78
2022/12/05 03:16:22;;;;;;;17.45;5.75;;;5.60;99.90;;;;;;5095629;28;20373;-80
2022/12/05 03:19:19;;;;;;;20.08;6.63;;;5.60;99.90;;;;;;5092470;28;20044;-85
2022/12/05 03:22:15;;;;;;;25.65;7.03;;;5.60;99.90;;;;;;5092800;28;20575;-84
2022/12/05 03:25:02;;;;;;;18.92;7.03;;;5.60;99.90;;;;;;5074166;28;20052;-78
2022/12/05 03:27:55;;;;;;;20.17;6.80;;;5.60;99.90;;;;;;5092619;28;20043;-84
2022/12/05 03:30:42;;;;;;;17.38;7.05;;;5.60;99.90;;;;;;5080336;28;20082;-80
2022/12/05 03:33:38;;;;;;;18.98;6.32;;;5.60;99.90;;;;;;5075516;28;20044;-83
2022/12/05 03:36:36;;;;;;;21.15;7.57;;;5.60;99.90;;;;;;5095481;28;20048;-84
2022/12/05 03:39:29;;;;;;;18.67;8.23;;;5.60;99.90;;;;;;5078532;28;20511;-83
2022/12/05 03:42:26;;;;;;;18.88;8.32;;;5.60;99.90;;;;;;5093470;28;20411;-78
2022/12/05 03:45:19;;;;;;;22.98;8.02;;;5.60;99.90;;;;;;5077025;28;20078;-80
2022/12/05 03:48:13;;;;;;;18.63;7.72;;;5.60;99.90;;;;;;5084517;28;20075;-82
2022/12/05 03:51:02;;;;;;;16.90;8.10;;;5.70;99.90;;;;;;5075209;28;20055;-81
2022/12/05 03:53:58;;;;;;;15.10;8.05;;;5.60;99.90;;;;;;5074370;28;20551;-79
2022/12/05 03:56:51;;;;;;;19.40;8.13;;;5.70;99.90;;;;;;5091698;28;20598;-79
2022/12/05 03:59:44;;;;;;;17.27;7.57;;;5.60;99.90;;;;;;5092604;28;20496;-78
2022/12/05 04:03:04;;;;;;;19.58;7.93;;;5.60;99.90;;;;;;5096035;28;20066;-80
2022/12/05 04:05:58;;;;;;;21.70;8.05;;;5.60;99.90;;;;;;5074222;28;20094;-80
2022/12/05 04:08:52;;;;;;;19.10;7.55;;;5.70;99.90;;;;;;5094724;28;20052;-80
2022/12/05 04:11:44;;;;;;;20.77;7.68;;;5.60;99.90;;;;;;5094690;28;20063;-81
2022/12/05 04:14:38;;;;;;;23.20;8.30;;;5.60;99.90;;;;;;5065440;28;20059;-83
2022/12/05 04:17:44;;;;;;;19.08;7.57;;;5.60;99.90;;;;;;5097335;28;20048;-81
2022/12/05 04:25:31;;;;;;;18.55;8.13;;;5.60;99.90;;;;;;5076754;28;20048;-81
2022/12/05 04:27:03;;;;;;;21.95;9.30;;;5.70;99.90;;;;;;5091413;28;20046;-83
2022/12/05 04:30:01;;;;;;;24.25;8.45;;;5.70;99.90;;;;;;5076393;28;20087;-86
2022/12/05 04:32:56;;;;;;;24.40;9.18;;;5.70;99.90;;;;;;5097113;28;20050;-81
2022/12/05 04:35:53;;;;;;;22.63;7.47;;;5.70;99.90;;;;;;5074263;28;20043;-80
2022/12/05 04:38:49;;;;;;;21.90;8.52;;;5.70;99.90;;;;;;5076170;28;20036;-82
2022/12/05 04:42:04;;;;;;;21.98;8.40;;;5.70;99.90;;;;;;5074478;28;20494;-85
2022/12/05 04:44:59;;;;;;;19.25;7.90;;;5.70;99.90;;;;;;5091621;28;20048;-81
2022/12/05 04:47:50;;;;;;;25.35;8.65;;;5.70;99.90;;;;;;5078260;28;20130;-79
2022/12/05 04:50:37;;;;;;;17.95;8.57;;;5.70;99.90;;;;;;5075012;28;20044;-83
2022/12/05 04:53:28;;;;;;;24.60;8.98;;;5.70;99.90;;;;;;5071462;28;20844;-81
2022/12/05 04:56:17;;;;;;;24.02;8.45;;;5.70;99.90;;;;;;5090246;28;20059;-84
2022/12/05 04:59:04;;;;;;;22.98;8.77;;;5.70;99.90;;;;;;5071964;28;20052;-79
2022/12/05 05:01:59;;;;;;;22.52;7.80;;;5.70;99.90;;;;;;5054927;28;20120;-77
2022/12/05 05:04:49;;;;;;;18.23;7.97;;;5.70;99.90;;;;;;5068940;28;20060;-82
2022/12/05 05:07:45;;;;;;;24.60;7.20;;;5.70;99.90;;;;;;5052363;28;20329;-84
2022/12/05 05:10:47;;;;;;;20.90;8.20;;;5.70;99.90;;;;;;5055279;28;20049;-84
2022/12/05 05:13:34;;;;;;;22.70;7.93;;;5.70;99.90;;;;;;5052829;28;20063;-86
2022/12/05 05:16:22;;;;;;;21.23;7.65;;;5.70;99.90;;;;;;5069798;28;20106;-82
2022/12/05 05:19:10;;;;;;;22.35;8.85;;;5.70;99.90;;;;;;5070802;28;20056;-83
2022/12/05 05:21:56;;;;;;;13.90;7.63;;;5.70;99.90;;;;;;5069883;28;20385;-83
2022/12/05 05:24:42;;;;;;;20.33;7.60;;;5.70;99.90;;;;;;5071057;28;20048;-81
2022/12/05 05:27:28;;;;;;;18.90;8.10;;;5.70;99.90;;;;;;5051214;28;20106;-85
2022/12/05 05:30:14;;;;;;;17.83;8.13;;;5.70;99.90;;;;;;5072922;28;20053;-85
2022/12/05 05:33:01;;;;;;;20.98;7.60;;;5.70;99.90;;;;;;5069782;28;20052;-81
2022/12/05 05:35:47;;;;;;;20.35;8.18;;;5.70;99.90;;;;;;5038472;28;20574;-84
2022/12/05 05:38:38;;;;;;;22.35;7.35;;;5.80;99.90;;;;;;5054745;28;20102;-82
2022/12/05 05:41:33;;;;;;;21.92;8.38;;;5.80;99.90;;;;;;5074261;28;20051;-78
2022/12/05 05:44:19;;;;;;;26.90;7.60;;;5.80;99.90;;;;;;5074509;28;20135;-79
2022/12/05 05:47:05;;;;;;;21.92;7.07;;;5.80;99.90;;;;;;5056213;28;20044;-85
2022/12/05 05:49:51;;;;;;;24.45;7.85;;;5.80;99.90;;;;;;5073326;28;20052;-78
2022/12/05 05:52:38;;;;;;;20.42;7.78;;;5.80;99.90;;;;;;5073711;28;20049;-81
2022/12/05 05:55:24;;;;;;;29.75;8.63;;;5.80;99.90;;;;;;5077068;28;20420;-78
2022/12/05 05:58:10;;;;;;;27.40;7.53;;;5.80;99.90;;;;;;5042607;28;20496;-84
2022/12/05 06:01:11;;;;;;;23.45;7.15;;;5.80;99.90;;;;;;5054641;28;20136;-82
2022/12/05 06:03:58;;;;;;;28.38;8.02;;;5.80;99.90;;;;;;5072176;28;20190;-82
2022/12/05 06:06:44;;;;;;;25.88;7.20;;;5.80;99.90;;;;;;5055661;28;20507;-79
2022/12/05 06:09:30;;;;;;;27.63;7.65;;;5.80;99.90;;;;;;5057313;28;20094;-78
2022/12/05 06:12:16;;;;;;;28.10;7.20;;;5.80;99.90;;;;;;5071289;28;20144;-79
2022/12/05 06:15:03;;;;;;;23.83;7.63;;;5.80;99.90;;;;;;5054535;28;20401;-83
2022/12/05 06:17:49;;;;;;;20.42;7.10;;;5.80;99.90;;;;;;5054349;28;20813;-83
2022/12/05 06:20:35;;;;;;;21.88;6.95;;;5.80;99.90;;;;;;5054513;28;20045;-79
2022/12/05 06:23:22;;;;;;;18.48;6.45;;;5.80;99.90;;;;;;5055114;28;20098;-86
2022/12/05 06:26:14;;;;;;;30.17;8.23;;;5.80;99.90;;;;;;5073840;28;20492;-84
2022/12/05 06:29:00;;;;;;;21.25;6.47;;;5.80;99.90;;;;;;5072631;28;20048;-78
2022/12/05 06:31:46;;;;;;;16.38;6.18;;;5.80;99.90;;;;;;5054134;28;20048;-83
2022/12/05 06:34:34;;;;;;;20.83;6.78;;;5.80;99.90;;;;;;5056859;28;20240;-79
2022/12/05 06:37:20;;;;;;;20.55;5.22;;;5.80;99.90;;;;;;5053161;28;20059;-80
2022/12/05 06:40:07;;;;;;;21.02;6.53;;;5.80;99.90;;;;;;5057325;28;20060;-81
2022/12/05 06:42:53;;;;;;;21.20;6.20;;;5.80;99.90;;;;;;5071860;28;20087;-82
2022/12/05 06:45:39;;;;;;;28.63;6.97;;;5.80;99.90;;;;;;5054304;28;20044;-79
2022/12/05 06:48:26;;;;;;;17.20;6.07;;;5.80;99.90;;;;;;5055003;28;20094;-86
2022/12/05 06:51:15;;;;;;;19.15;6.45;;;5.80;99.90;;;;;;5070706;28;20487;-81
2022/12/05 06:54:01;;;;;;;18.63;5.57;;;5.90;99.90;;;;;;5075237;28;20404;-79
2022/12/05 06:56:48;;;;;;;24.17;8.13;;;5.90;99.90;;;;;;5072860;28;20051;-79
2022/12/05 06:59:34;;;;;;;21.00;6.70;;;5.90;99.90;;;;;;5073750;28;20547;-80
2022/12/05 07:02:20;;;;;;;20.75;6.05;;;5.90;99.90;;;;;;5074081;28;20373;-78
2022/12/05 07:05:07;;;;;;;19.23;6.75;;;5.90;99.90;;;;;;5091585;28;20055;-80
2022/12/05 07:07:54;;;;;;;19.98;6.03;;;5.90;99.90;;;;;;5094351;28;20071;-86
2022/12/05 07:10:40;;;;;;;20.10;5.78;;;5.90;99.90;;;;;;5075358;28;20135;-86
2022/12/05 07:13:26;;;;;;;12.88;5.50;;;5.90;99.90;;;;;;5091096;28;20052;-80
2022/12/05 07:16:12;;;;;;;14.80;5.90;;;5.90;99.90;;;;;;5077016;28;20056;-80
2022/12/05 07:18:59;;;;;;;21.10;6.18;;;6.00;99.90;;;;;;5091824;28;20054;-87
2022/12/05 07:21:45;;;;;;;19.50;6.05;;;5.90;99.90;;;;;;5091303;28;20079;-79
2022/12/05 07:24:31;;;;;;;17.70;5.35;;;5.90;99.90;;;;;;5059387;28;20044;-79
2022/12/05 07:27:18;;;;;;;19.83;7.07;;;5.90;99.90;;;;;;5080811;28;20063;-82
2022/12/05 07:30:05;;;;;;;23.27;7.18;;;5.90;99.90;;;;;;5093420;28;20048;-84
2022/12/05 07:32:51;;;;;;;22.95;6.65;;;6.00;99.90;;;;;;5091875;28;20843;-79
2022/12/05 07:35:37;;;;;;;16.70;6.38;;;6.00;99.90;;;;;;5091095;28;20073;-78
2022/12/05 07:38:23;;;;;;;21.30;6.65;;;6.00;99.90;;;;;;5091392;28;20142;-79
2022/12/05 07:41:21;;;;;;;22.45;6.35;;;6.00;99.90;;;;;;5072955;28;20134;-82
2022/12/05 07:44:11;;;;;;;27.83;8.05;;;6.00;99.90;;;;;;5075147;28;20536;-81
2022/12/05 07:46:58;;;;;;;20.00;6.75;;;6.00;99.90;;;;;;5072846;28;20043;-81
2022/12/05 07:49:44;;;;;;;26.40;7.10;;;6.00;99.90;;;;;;5089861;28;20056;-81
2022/12/05 07:52:30;;;;;;;31.40;7.28;;;6.00;99.90;;;;;;5090581;28;20043;-79
2022/12/05 07:55:17;;;;;;;27.17;6.45;;;6.00;99.90;;;;;;5072733;28;20048;-83
2022/12/05 07:58:03;;;;;;;21.02;6.68;;;6.00;99.90;;;;;;5075376;28;20052;-79
2022/12/05 08:00:49;;;;;;;20.45;6.25;;;6.00;99.90;;;;;;5073577;28;20056;-86
2022/12/05 08:03:38;;;;;;;21.98;6.13;;;6.00;99.90;;;;;;5091129;28;20055;-80
2022/12/05 08:06:27;;;;;;;19.08;6.15;;;6.00;99.90;;;;;;5071009;28;20044;-79
2022/12/05 08:09:13;;;;;;;19.95;7.00;;;6.00;99.90;;;;;;5071537;28;20105;-83
2022/12/05 08:11:59;;;;;;;22.23;6.35;;;6.00;99.90;;;;;;5062154;28;20055;-78
2022/12/05 08:14:46;;;;;;;18.27;6.10;;;6.00;99.90;;;;;;5072634;28;20125;-85
2022/12/05 08:17:32;;;;;;;17.10;6.70;;;6.00;99.90;;;;;;5076430;28;20058;-80
2022/12/05 08:20:19;;;;;;;22.58;5.90;;;6.00;99.90;;;;;;5090519;28;20093;-80
2022/12/05 08:23:05;;;;;;;20.02;7.05;;;6.00;99.90;;;;;;5090978;28;20094;-81
2022/12/05 08:25:51;;;;;;;24.33;5.85;;;6.00;99.90;;;;;;5072860;28;20139;-82
2022/12/05 08:28:39;;;;;;;22.13;5.82;;;6.00;99.90;;;;;;5078914;28;20074;-82
2022/12/05 08:31:27;;;;;;;14.90;5.60;;;6.00;99.90;;;;;;5075545;28;20078;-83
2022/12/05 08:34:15;;;;;;;19.60;6.75;;;6.00;99.90;;;;;;5090415;28;20051;-82
2022/12/05 08:37:01;;;;;;;18.92;5.93;;;6.00;99.90;;;;;;5090408;28;20059;-84
2022/12/05 08:39:47;;;;;;;20.60;7.13;;;6.00;99.90;;;;;;5089058;28;20123;-79
2022/12/05 08:42:33;;;;;;;21.35;6.63;;;6.00;99.90;;;;;;5073060;28;20512;-84
2022/12/05 08:45:20;;;;;;;21.35;6.38;;;6.00;99.90;;;;;;5073915;28;20048;-82
2022/12/05 08:48:06;;;;;;;17.55;6.70;;;6.10;99.90;;;;;;5090465;28;20048;-80
2022/12/05 08:50:52;;;;;;;18.27;7.75;;;6.10;99.90;;;;;;5090446;28;20048;-79
2022/12/05 08:53:39;;;;;;;28.50;9.57;;;6.10;99.90;;;;;;5090114;28;20056;-81
2022/12/05 08:56:25;;;;;;;23.42;8.27;;;6.10;99.90;;;;;;5072121;28;20143;-82
2022/12/05 08:59:12;;;;;;;36.10;8.95;;;6.10;99.90;;;;;;5074730;28;20052;-78
2022/12/05 09:01:58;;;;;;;19.90;6.95;;;6.10;99.90;;;;;;5090289;28;20381;-80
2022/12/05 09:04:48;;;;;;;17.92;7.72;;;6.10;99.90;;;;;;5072700;28;20083;-81
2022/12/05 09:07:34;;;;;;;26.25;9.88;;;6.10;99.90;;;;;;5090014;28;20139;-80
2022/12/05 09:10:21;;;;;;;18.20;7.18;;;6.10;99.90;;;;;;5089210;28;20904;-82
2022/12/05 09:13:08;;;;;;;25.95;8.60;;;6.10;99.90;;;;;;5073014;28;20499;-84
2022/12/05 09:15:54;;;;;;;17.95;7.43;;;6.10;99.90;;;;;;5090825;28;20048;-86
2022/12/05 09:18:40;;;;;;;21.95;7.20;;;6.10;99.90;;;;;;5094678;28;20046;-82
2022/12/05 09:21:29;;;;;;;27.38;7.65;;;6.10;99.90;;;;;;5094945;28;20457;-81
2022/12/05 09:24:16;;;;;;;20.20;7.53;;;6.10;99.90;;;;;;5093938;28;20044;-82
2022/12/05 09:27:02;;;;;;;22.08;7.82;;;6.10;99.90;;;;;;5075417;28;20043;-83
2022/12/05 09:29:48;;;;;;;18.13;7.72;;;6.10;99.90;;;;;;5098061;28;20040;-82
2022/12/05 09:32:34;;;;;;;16.92;6.50;;;6.10;99.90;;;;;;5075435;28;20704;-86
2022/12/05 09:35:21;;;;;;;16.42;6.57;;;6.20;99.90;;;;;;5093240;28;20433;-85
2022/12/05 09:38:07;;;;;;;20.05;8.00;;;6.20;99.90;;;;;;5093994;28;20097;-86
2022/12/05 09:41:07;;;;;;;29.88;8.00;;;6.20;99.90;;;;;;5075539;28;20058;-83
2022/12/05 09:44:08;;;;;;;18.65;7.82;;;6.10;99.90;;;;;;5076187;28;20059;-85
2022/12/05 09:47:04;;;;;;;20.48;6.43;;;6.10;99.90;;;;;;5081086;28;20385;-81
2022/12/05 09:50:01;;;;;;;13.80;6.97;;;6.20;99.90;;;;;;5074147;28;20044;-78
2022/12/05 09:52:53;;;;;;;17.65;7.10;;;6.10;99.90;;;;;;5075332;28;20048;-81
2022/12/05 09:55:46;;;;;;;17.60;7.00;;;6.20;99.90;;;;;;5093951;28;20067;-79
2022/12/05 09:58:45;;;;;;;19.50;7.22;;;6.20;99.90;;;;;;5077779;28;20115;-80
2022/12/05 10:01:39;;;;;;;19.25;8.50;;;6.20;99.90;;;;;;5076456;28;20059;-77
2022/12/05 10:04:34;;;;;;;21.27;9.00;;;6.20;99.90;;;;;;5074679;28;20055;-78
2022/12/05 10:07:36;;;;;;;24.85;10.27;;;6.20;99.90;;;;;;5075354;28;20510;-79
2022/12/05 10:10:41;;;;;;;27.48;7.22;;;6.20;99.90;;;;;;5093687;28;20472;-81
2022/12/05 10:13:39;;;;;;;17.02;7.28;;;6.20;99.90;;;;;;5077635;28;20048;-86
2022/12/05 10:16:31;;;;;;;25.27;7.85;;;6.20;99.90;;;;;;5075323;28;20451;-82
2022/12/05 10:19:34;;;;;;;20.30;6.72;;;6.20;99.90;;;;;;5075593;28;20044;-84
2022/12/05 10:22:36;;;;;;;20.25;7.13;;;6.20;99.90;;;;;;5074451;28;20511;-84
2022/12/05 10:25:27;;;;;;;17.42;7.43;;;6.20;99.90;;;;;;5074885;28;20048;-84
2022/12/05 10:28:38;;;;;;;19.23;7.82;;;6.30;99.90;;;;;;5091013;28;20605;-84
2022/12/05 10:31:37;;;;;;;24.00;7.68;;;6.30;99.90;;;;;;5093436;28;20056;-79
2022/12/05 10:34:29;;;;;;;20.55;7.47;;;6.30;99.90;;;;;;5074409;28;20134;-83
2022/12/05 10:37:17;;;;;;;22.67;8.18;;;6.30;99.90;;;;;;5077971;28;20043;-85
2022/12/05 10:40:03;;;;;;;21.23;6.70;;;6.30;99.90;;;;;;5073791;28;20044;-83
2022/12/05 10:42:50;;;;;;;23.05;7.25;;;6.30;99.90;;;;;;5093145;28;20048;-80
2022/12/05 10:45:42;;;;;;;18.98;7.68;;;6.30;99.90;;;;;;5094993;28;20055;-82
2022/12/05 10:48:30;;;;;;;20.35;7.57;;;6.30;99.90;;;;;;5091806;28;20044;-80
2022/12/05 10:51:22;;;;;;;26.95;8.02;;;6.30;99.90;;;;;;5090689;28;20048;-80
2022/12/05 10:54:28;;;;;;;20.73;6.32;;;6.30;99.90;;;;;;5090843;28;20044;-78
2022/12/05 10:57:24;;;;;;;17.55;6.25;;;6.40;99.90;;;;;;5091397;28;20063;-84
2022/12/05 11:00:20;;;;;;;;;;;6.40;99.90;;;;;;5092059;28;20048;-79
2022/12/05 11:03:30;;;;;;;18.33;6.50;;;6.40;99.90;;;;;;5094005;28;19968;-83
2022/12/05 11:06:28;;;;;;;16.10;6.30;;;6.40;99.90;;;;;;5072985;28;20040;-86
2022/12/05 11:09:29;;;;;;;23.90;6.88;;;6.40;99.90;;;;;;5091193;28;20510;-81
2022/12/05 11:12:19;;;;;;;22.63;6.90;;;6.40;99.90;;;;;;5091907;28;20052;-81
2022/12/05 11:15:15;;;;;;;21.38;6.25;;;6.40;99.90;;;;;;5066033;28;20082;-87
2022/12/05 11:18:16;;;;;;;;;;;6.30;99.90;;;;;;5094144;28;20044;-86
2022/12/05 11:21:21;;;;;;;17.00;5.47;;;6.30;99.90;;;;;;5072787;28;19923;-86
2022/12/05 11:24:39;;;;;;;16.77;6.07;;;6.30;99.90;;;;;;5091679;28;20054;-79
2022/12/05 11:27:29;;;;;;;22.58;6.07;;;6.30;99.90;;;;;;5040407;28;20056;-85
2022/12/05 11:30:21;;;;;;;24.00;6.53;;;6.30;99.90;;;;;;5092467;28;20046;-86
2022/12/05 11:33:19;;;;;;;25.40;6.35;;;6.30;99.90;;;;;;5094335;28;20044;-78
2022/12/05 11:36:18;;;;;;;20.90;6.95;;;6.30;99.90;;;;;;5091760;28;20440;-80
2022/12/05 11:39:04;;;;;;;23.27;6.00;;;6.30;99.90;;;;;;5075626;28;20047;-79
2022/12/05 11:41:56;;;;;;;23.73;6.20;;;6.20;99.90;;;;;;5090975;28;20044;-80
2022/12/05 11:45:11;;;;;;;16.58;5.25;;;6.20;99.90;;;;;;5091153;28;20052;-82
2022/12/05 11:48:26;;;;;;;17.52;6.20;;;6.20;99.90;;;;;;5076406;28;20052;-77
2022/12/05 11:51:44;;;;;;;21.38;6.20;;;6.20;99.90;;;;;;5073044;28;20078;-84
2022/12/05 11:55:04;;;;;;;15.55;5.90;;;6.20;99.90;;;;;;5073414;28;20062;-86
2022/12/05 11:58:05;;;;;;;22.02;5.78;;;6.20;99.90;;;;;;5071438;28;20051;-78
2022/12/05 12:01:07;;;;;;;18.40;6.25;;;6.20;99.90;;;;;;5075762;28;20127;-84
2022/12/05 12:03:56;;;;;;;24.33;7.20;;;6.20;99.90;;;;;;5073294;28;20044;-87
2022/12/05 12:07:02;;;;;;;15.02;5.43;;;6.20;99.90;;;;;;5091164;28;20483;-84
2022/12/05 12:10:11;;;;;;;17.80;5.32;;;6.10;99.90;;;;;;5090693;28;20044;-85
2022/12/05 12:13:25;;;;;;;19.55;5.80;;;6.10;99.90;;;;;;5073696;28;20044;-82
2022/12/05 12:16:30;;;;;;;19.38;5.65;;;6.10;99.90;;;;;;5077043;28;20134;-81
2022/12/05 12:19:31;;;;;;;16.40;6.03;;;6.10;99.90;;;;;;5091224;28;20052;-81
2022/12/05 12:22:38;;;;;;;20.63;5.80;;;6.10;99.90;;;;;;5072611;28;20291;-83
2022/12/05 12:25:37;;;;;;;16.73;5.10;;;6.10;99.90;;;;;;5074718;28;20491;-84
2022/12/05 12:28:52;;;;;;;17.05;5.82;;;6.10;99.90;;;;;;5072061;28;20048;-81
2022/12/05 12:31:59;;;;;;;16.30;5.60;;;6.10;99.90;;;;;;5092170;28;20051;-87
2022/12/05 12:35:21;;;;;;;23.85;5.75;;;6.00;99.90;;;;;;5077496;28;20425;-80
2022/12/05 12:38:34;;;;;;;20.45;5.97;;;6.00;99.90;;;;;;5090478;28;20541;-80
2022/12/05 12:41:44;;;;;;;17.55;5.95;;;6.00;99.90;;;;;;5089436;28;20083;-80
2022/12/05 12:44:52;;;;;;;18.30;5.97;;;6.00;99.90;;;;;;5090212;28;20059;-85
2022/12/05 12:47:58;;;;;;;22.05;6.28;;;6.00;99.90;;;;;;5060069;28;20135;-79
2022/12/05 12:50:50;;;;;;;21.65;5.18;;;6.10;99.90;;;;;;5050314;28;20044;-85
2022/12/05 12:53:54;;;;;;;16.25;5.10;;;6.00;99.90;;;;;;5081343;28;20047;-82
2022/12/05 12:57:08;;;;;;;25.00;5.40;;;6.00;99.90;;;;;;5076077;28;20541;-82
2022/12/05 13:00:16;;;;;;;22.98;5.43;;;6.00;99.90;;;;;;5094005;28;20336;-87
2022/12/05 13:03:02;;;;;;;17.30;5.50;;;6.00;99.90;;;;;;5095122;28;20040;-79
2022/12/05 13:05:55;;;;;;;12.93;4.35;;;6.00;99.90;;;;;;5095875;28;20444;-78
2022/12/05 13:08:57;;;;;;;20.35;4.63;;;6.00;99.90;;;;;;5098852;28;20048;-83
2022/12/05 13:11:45;;;;;;;21.45;5.45;;;6.00;99.90;;;;;;5076728;28;20124;-78
2022/12/05 13:14:35;;;;;;;18.35;5.10;;;6.00;99.90;;;;;;5076185;28;20059;-79
2022/12/05 13:17:22;;;;;;;15.55;4.30;;;6.00;99.90;;;;;;5096632;28;20062;-80
2022/12/05 13:20:20;;;;;;;22.85;6.03;;;6.10;99.90;;;;;;5079999;28;20044;-80
2022/12/05 13:23:11;;;;;;;16.38;4.75;;;6.00;99.90;;;;;;5081370;28;20059;-82
2022/12/05 13:25:59;;;;;;;13.77;5.20;;;6.00;99.90;;;;;;5066751;28;20044;-86
2022/12/05 13:28:54;;;;;;;19.70;4.80;;;6.00;99.90;;;;;;5079197;28;20101;-83
2022/12/05 13:31:44;;;;;;;33.42;5.72;;;6.00;99.90;;;;;;5075681;28;20555;-79
2022/12/05 13:34:46;;;;;;;13.55;4.25;;;6.00;99.90;;;;;;5092624;28;20491;-86
2022/12/05 13:43:54;;;;;;;18.70;6.05;;;6.00;99.90;;;;;;5080844;28;20503;-81
2022/12/05 13:46:42;;;;;;;21.67;5.30;;;6.00;99.90;;;;;;5093506;28;20063;-82
2022/12/05 13:49:40;;;;;;;19.08;5.05;;;6.00;99.90;;;;;;5093388;28;20173;-84
2022/12/05 13:52:30;;;;;;;15.93;6.28;;;6.00;99.90;;;;;;5077744;28;20159;-81
2022/12/05 13:55:28;;;;;;;23.63;5.10;;;6.00;99.90;;;;;;5092948;28;20044;-78
2022/12/05 13:58:23;;;;;;;22.05;5.72;;;6.00;99.90;;;;;;5079540;28;20059;-83
2022/12/05 14:01:25;;;;;;;21.58;6.03;;;6.00;99.90;;;;;;5094882;28;20052;-83
2022/12/05 14:04:46;;;;;;;18.30;4.53;;;6.00;99.90;;;;;;5077890;28;20411;-81
2022/12/05 14:07:44;;;;;;;17.90;4.65;;;6.00;99.90;;;;;;5092477;28;20660;-81
2022/12/05 14:10:30;;;;;;;14.18;4.75;;;5.90;99.90;;;;;;5093716;28;20044;-78
2022/12/05 14:13:17;;;;;;;13.15;4.18;;;5.90;99.90;;;;;;5077574;28;20048;-82
2022/12/05 14:16:25;;;;;;;14.85;5.05;;;6.00;99.90;;;;;;5103104;28;20074;-80
2022/12/05 14:19:42;;;;;;;18.70;6.40;;;5.90;99.90;;;;;;5074814;28;20051;-81
2022/12/05 14:22:31;;;;;;;12.48;4.28;;;5.90;99.90;;;;;;5093269;28;20100;-81
2022/12/05 14:25:36;;;;;;;19.83;5.38;;;5.90;99.90;;;;;;5092990;28;20044;-85
2022/12/05 14:28:40;;;;;;;20.08;5.20;;;5.90;99.90;;;;;;5097590;28;20430;-83
2022/12/05 14:31:51;;;;;;;15.65;5.15;;;5.90;99.90;;;;;;5079652;28;20051;-84
2022/12/05 14:34:56;;;;;;;21.60;5.30;;;5.90;99.90;;;;;;5096477;28;20051;-81
2022/12/05 14:38:00;;;;;;;20.90;5.87;;;5.90;99.90;;;;;;5098467;28;20051;-79
2022/12/05 14:40:47;;;;;;;14.77;6.18;;;5.90;99.90;;;;;;5102455;28;20113;-81
2022/12/05 14:43:33;;;;;;;22.50;6.30;;;5.90;99.90;;;;;;5087184;28;20048;-82
2022/12/05 14:46:31;;;;;;;24.13;7.70;;;5.80;99.90;;;;;;5081716;28;20138;-79
2022/12/05 14:49:35;;;;;;;17.15;6.57;;;5.90;99.90;;;;;;5080508;28;20546;-79
2022/12/05 14:52:24;;;;;;;13.07;5.45;;;5.90;99.90;;;;;;5099388;28;20056;-81
2022/12/05 14:55:16;;;;;;;19.95;5.82;;;5.80;99.90;;;;;;5074939;28;20056;-80
2022/12/05 14:58:02;;;;;;;18.67;5.00;;;5.80;99.90;;;;;;5075818;28;20056;-84
2022/12/05 15:00:58;;;;;;;18.48;4.82;;;5.80;99.90;;;;;;5074754;28;20137;-81
2022/12/05 15:04:18;;;;;;;14.00;4.38;;;5.80;99.90;;;;;;5092643;28;20066;-85
2022/12/05 15:07:15;;;;;;;18.13;5.70;;;5.80;99.90;;;;;;5098412;28;20148;-84
2022/12/05 15:10:26;;;;;;;13.77;4.60;;;5.80;99.90;;;;;;5092947;28;20059;-86